Time;durP1;ratioP1;P1;durP2;ratioP2;P2;SDS_P1;SDS_P2;PMS_P1;PMS_P2;Temp;Humidity;BMP_temperature;BMP_pressure;BME280_temperature;BME280_humidity;BME280_pressure;Samples;Min_cycle;Max_cycle;Signal;HPM_P1;HPM_P2
2023/01/16 00:00:39;;;;;;;;;;;19.20;42.90;;;;;;5056469;28;19928;-63
2023/01/16 00:03:06;;;;;;;;;;;19.10;42.80;;;;;;5082173;28;19920;-64
2023/01/16 00:05:33;;;;;;;;;;;19.20;42.90;;;;;;5074226;28;19970;-65
2023/01/16 00:07:59;;;;;;;;;;;19.20;42.90;;;;;;5080236;28;19925;-63
2023/01/16 00:10:26;;;;;;;;;;;19.10;42.80;;;;;;5059682;28;19925;-64
2023/01/16 00:12:54;;;;;;;;;;;19.20;42.90;;;;;;5062530;28;20017;-63
2023/01/16 00:15:21;;;;;;;;;;;19.20;42.90;;;;;;5058410;28;19948;-63
2023/01/16 00:17:49;;;;;;;;;;;19.20;42.90;;;;;;5080923;28;19931;-63
2023/01/16 00:20:16;;;;;;;;;;;19.10;42.80;;;;;;5060204;28;19921;-63
2023/01/16 00:22:43;;;;;;;;;;;19.20;42.90;;;;;;5056639;28;19928;-63
2023/01/16 00:25:10;;;;;;;;;;;19.20;42.90;;;;;;5064294;28;19929;-63
2023/01/16 00:27:36;;;;;;;;;;;19.10;42.80;;;;;;5082192;28;20328;-63
2023/01/16 00:30:06;;;;;;;;;;;19.10;42.80;;;;;;5060208;28;19924;-63
2023/01/16 00:32:32;;;;;;;;;;;19.20;42.90;;;;;;5079366;28;19931;-65
2023/01/16 00:34:59;;;;;;;;;;;19.20;42.90;;;;;;5064504;28;19950;-63
2023/01/16 00:37:26;;;;;;;;;;;19.10;42.80;;;;;;5061808;28;20051;-63
2023/01/16 00:39:53;;;;;;;;;;;19.20;42.90;;;;;;5061923;28;19928;-64
2023/01/16 00:42:19;;;;;;;;;;;19.20;43.00;;;;;;5078934;28;19920;-65
2023/01/16 00:44:46;;;;;;;;;;;19.20;43.00;;;;;;5061011;28;19945;-64
2023/01/16 00:47:14;;;;;;;;;;;19.10;42.80;;;;;;5063810;28;19928;-63
2023/01/16 00:49:41;;;;;;;;;;;19.20;43.00;;;;;;5061382;28;19924;-63
2023/01/16 00:52:08;;;;;;;;;;;19.10;42.90;;;;;;5063287;28;19977;-64
2023/01/16 00:54:35;;;;;;;;;;;19.10;42.90;;;;;;5082018;28;19920;-63
2023/01/16 00:57:01;;;;;;;;;;;19.10;42.90;;;;;;5053840;28;19924;-63
2023/01/16 00:59:28;;;;;;;;;;;19.10;42.90;;;;;;5061566;28;19920;-63
2023/01/16 01:01:55;;;;;;;;;;;19.10;42.90;;;;;;5060897;28;20029;-63
2023/01/16 01:04:23;;;;;;;;;;;19.20;43.00;;;;;;5063948;28;19924;-64
2023/01/16 01:06:50;;;;;;;;;;;19.10;42.90;;;;;;5078231;28;19974;-66
2023/01/16 01:09:17;;;;;;;;;;;19.10;42.90;;;;;;5061690;28;19933;-63
2023/01/16 01:11:43;;;;;;;;;;;19.20;43.00;;;;;;5075485;28;19924;-63
2023/01/16 01:14:10;;;;;;;;;;;19.10;42.90;;;;;;5062456;28;19928;-63
2023/01/16 01:16:37;;;;;;;;;;;19.10;42.90;;;;;;5061357;28;19924;-64
2023/01/16 01:19:04;;;;;;;;;;;19.10;42.90;;;;;;5062016;28;20412;-62
2023/01/16 01:21:32;;;;;;;;;;;19.10;42.90;;;;;;5059502;28;19922;-64
2023/01/16 01:23:59;;;;;;;;;;;19.10;42.90;;;;;;5063540;28;20362;-65
2023/01/16 01:26:25;;;;;;;;;;;19.10;42.90;;;;;;5063269;28;19982;-63
2023/01/16 01:28:52;;;;;;;;;;;19.10;42.90;;;;;;5060894;28;20011;-64
2023/01/16 01:31:19;;;;;;;;;;;19.10;42.90;;;;;;5065879;28;19920;-63
2023/01/16 01:33:46;;;;;;;;;;;19.10;42.90;;;;;;5068227;28;19924;-63
2023/01/16 01:36:13;;;;;;;;;;;19.10;42.90;;;;;;5066447;28;19924;-64
2023/01/16 01:38:41;;;;;;;;;;;19.10;42.90;;;;;;5059349;28;20467;-63
2023/01/16 01:41:08;;;;;;;;;;;19.10;42.90;;;;;;5060220;28;19928;-65
2023/01/16 01:43:42;;;;;;;;;;;19.10;43.00;;;;;;5083211;28;19920;-64
2023/01/16 01:46:10;;;;;;;;;;;19.10;43.00;;;;;;5082077;28;19928;-65
2023/01/16 01:48:39;;;;;;;;;;;19.10;43.00;;;;;;5065295;28;19921;-64
2023/01/16 01:51:06;;;;;;;;;;;19.10;42.90;;;;;;5061163;28;19943;-63
2023/01/16 01:53:33;;;;;;;;;;;19.10;43.00;;;;;;5067031;28;20365;-65
2023/01/16 01:56:03;;;;;;;;;;;19.10;43.00;;;;;;5064598;28;19932;-65
2023/01/16 01:58:29;;;;;;;;;;;19.10;43.00;;;;;;5065374;28;19924;-64
2023/01/16 02:00:57;;;;;;;;;;;19.10;42.90;;;;;;5079949;28;19920;-64
2023/01/16 02:03:25;;;;;;;;;;;19.10;43.00;;;;;;5066418;28;19927;-64
2023/01/16 02:05:53;;;;;;;;;;;19.10;43.00;;;;;;5083396;28;19924;-64
2023/01/16 02:08:20;;;;;;;;;;;19.10;43.00;;;;;;5063425;28;19927;-64
2023/01/16 02:10:48;;;;;;;;;;;19.10;43.00;;;;;;5086031;28;20409;-64
2023/01/16 02:13:16;;;;;;;;;;;19.10;43.00;;;;;;5063370;28;19927;-65
2023/01/16 02:21:11;;;;;;;;;;;19.10;43.00;;;;;;5074016;28;19935;-64
2023/01/16 02:23:48;;;;;;;;;;;19.10;43.00;;;;;;5083739;28;19920;-63
2023/01/16 02:26:38;;;;;;;;;;;19.10;43.00;;;;;;5059067;28;20312;-63
2023/01/16 02:29:13;;;;;;;;;;;19.10;43.00;;;;;;5061917;28;19920;-63
2023/01/16 02:31:42;;;;;;;;;;;19.10;43.00;;;;;;5066023;28;19924;-64
2023/01/16 02:34:14;;;;;;;;;;;19.10;43.00;;;;;;5064749;28;19928;-64
2023/01/16 02:36:43;;;;;;;;;;;19.10;43.00;;;;;;5064070;28;19927;-64
2023/01/16 02:39:11;;;;;;;;;;;19.10;43.00;;;;;;5067602;28;19924;-64
2023/01/16 02:41:42;;;;;;;;;;;19.10;43.00;;;;;;5061846;28;20263;-63
2023/01/16 02:44:11;;;;;;;;;;;19.10;43.00;;;;;;5080780;28;20304;-63
2023/01/16 02:46:39;;;;;;;;;;;19.10;43.00;;;;;;5079878;28;19920;-64
2023/01/16 02:49:09;;;;;;;;;;;19.10;43.00;;;;;;5058560;28;19920;-63
2023/01/16 02:51:37;;;;;;;;;;;19.10;43.00;;;;;;5066459;28;20420;-64
2023/01/16 02:54:10;;;;;;;;;;;19.10;43.00;;;;;;5064742;28;19966;-65
2023/01/16 02:56:41;;;;;;;;;;;19.10;43.00;;;;;;5062553;28;20014;-63
2023/01/16 02:59:08;;;;;;;;;;;19.10;43.00;;;;;;5060305;28;20401;-64
2023/01/16 03:01:35;;;;;;;;;;;19.10;43.00;;;;;;5066269;28;19931;-65
2023/01/16 03:04:05;;;;;;;;;;;19.10;43.00;;;;;;5062288;28;19931;-63
2023/01/16 03:06:34;;;;;;;;;;;19.10;43.00;;;;;;5059142;28;19924;-64
2023/01/16 03:09:04;;;;;;;;;;;19.10;43.00;;;;;;5064476;28;19932;-65
2023/01/16 03:11:31;;;;;;;;;;;19.10;43.00;;;;;;5062577;28;19982;-63
2023/01/16 03:14:02;;;;;;;;;;;19.10;43.00;;;;;;5064942;28;19920;-64
2023/01/16 03:16:30;;;;;;;;;;;19.10;43.00;;;;;;5059193;28;19985;-66
2023/01/16 03:19:00;;;;;;;;;;;19.10;43.00;;;;;;5061626;28;19972;-65
2023/01/16 03:21:28;;;;;;;;;;;19.10;43.00;;;;;;5063332;28;19920;-64
2023/01/16 03:23:57;;;;;;;;;;;19.10;43.00;;;;;;5075806;28;19963;-64
2023/01/16 03:26:27;;;;;;;;;;;19.10;43.00;;;;;;5060171;28;19924;-63
2023/01/16 03:28:56;;;;;;;;;;;19.10;43.00;;;;;;5061044;28;19971;-64
2023/01/16 03:31:25;;;;;;;;;;;19.10;43.00;;;;;;5062937;28;19920;-64
2023/01/16 03:33:58;;;;;;;;;;;19.10;43.00;;;;;;5082034;28;19943;-65
2023/01/16 03:36:25;;;;;;;;;;;19.10;43.00;;;;;;5062887;28;19920;-63
2023/01/16 03:38:52;;;;;;;;;;;19.10;43.00;;;;;;5080015;28;19924;-64
2023/01/16 03:41:20;;;;;;;;;;;19.10;42.90;;;;;;5064249;28;19931;-64
2023/01/16 03:43:48;;;;;;;;;;;19.10;43.00;;;;;;5059876;28;20025;-63
2023/01/16 03:46:16;;;;;;;;;;;19.10;43.00;;;;;;5064418;28;19986;-63
2023/01/16 03:48:44;;;;;;;;;;;19.10;43.00;;;;;;5062757;28;19924;-63
2023/01/16 03:51:11;;;;;;;;;;;19.10;43.00;;;;;;5081499;28;19925;-65
2023/01/16 03:53:39;;;;;;;;;;;19.10;42.90;;;;;;5062816;28;20289;-65
2023/01/16 03:56:08;;;;;;;;;;;19.10;43.00;;;;;;5058734;28;19924;-64
2023/01/16 03:58:37;;;;;;;;;;;19.10;43.00;;;;;;5062745;28;19928;-64
2023/01/16 04:01:06;;;;;;;;;;;19.10;43.00;;;;;;5062504;28;19999;-64
2023/01/16 04:03:35;;;;;;;;;;;19.10;43.00;;;;;;5081269;28;19924;-63
2023/01/16 04:06:05;;;;;;;;;;;19.10;43.00;;;;;;5064930;28;19932;-63
2023/01/16 04:08:33;;;;;;;;;;;19.10;42.90;;;;;;5063655;28;19931;-63
2023/01/16 04:11:00;;;;;;;;;;;19.10;42.90;;;;;;5062892;28;19973;-64
2023/01/16 04:13:27;;;;;;;;;;;19.10;42.90;;;;;;5057742;28;19946;-64
2023/01/16 04:15:56;;;;;;;;;;;19.10;43.00;;;;;;5063561;28;19927;-63
2023/01/16 04:18:24;;;;;;;;;;;19.10;42.90;;;;;;5060480;28;19920;-64
2023/01/16 04:20:51;;;;;;;;;;;19.10;42.90;;;;;;5065378;28;20294;-65
2023/01/16 04:23:18;;;;;;;;;;;19.10;42.90;;;;;;5078272;28;19927;-63
2023/01/16 04:25:45;;;;;;;;;;;19.10;42.90;;;;;;5062739;28;19924;-64
2023/01/16 04:28:11;;;;;;;;;;;19.10;42.90;;;;;;5059173;28;19928;-63
2023/01/16 04:30:38;;;;;;;;;;;19.10;43.00;;;;;;5061496;28;19973;-64
2023/01/16 04:33:06;;;;;;;;;;;19.10;42.90;;;;;;5063720;28;19920;-65
2023/01/16 04:35:33;;;;;;;;;;;19.10;42.90;;;;;;5062947;28;19925;-65
2023/01/16 04:38:00;;;;;;;;;;;19.10;42.90;;;;;;5062225;28;19924;-65
2023/01/16 04:40:27;;;;;;;;;;;19.10;42.90;;;;;;5060722;28;19974;-66
2023/01/16 04:42:54;;;;;;;;;;;19.10;42.90;;;;;;5062625;28;19924;-66
2023/01/16 04:45:21;;;;;;;;;;;19.10;42.90;;;;;;5082375;28;20034;-67
2023/01/16 04:47:48;;;;;;;;;;;19.10;42.90;;;;;;5077378;28;19927;-65
2023/01/16 04:50:16;;;;;;;;;;;19.10;42.90;;;;;;5080173;28;19920;-65
2023/01/16 04:52:43;;;;;;;;;;;19.10;42.90;;;;;;5060813;28;19956;-66
2023/01/16 04:55:10;;;;;;;;;;;19.10;42.90;;;;;;5061802;28;19932;-64
2023/01/16 04:57:37;;;;;;;;;;;19.10;42.90;;;;;;5062681;28;20438;-65
2023/01/16 05:00:04;;;;;;;;;;;19.10;42.90;;;;;;5060905;28;19973;-64
2023/01/16 05:02:34;;;;;;;;;;;19.10;42.90;;;;;;5060642;28;19924;-64
2023/01/16 05:05:00;;;;;;;;;;;19.10;42.90;;;;;;5061252;28;19920;-65
2023/01/16 05:07:29;;;;;;;;;;;19.10;42.90;;;;;;5053580;28;19985;-64
2023/01/16 05:09:55;;;;;;;;;;;19.10;42.90;;;;;;5061319;28;19924;-65
2023/01/16 05:12:22;;;;;;;;;;;19.10;42.90;;;;;;5062677;28;19920;-66
2023/01/16 05:14:49;;;;;;;;;;;19.10;42.90;;;;;;5081752;28;19977;-65
2023/01/16 05:17:16;;;;;;;;;;;19.10;42.90;;;;;;5077553;28;19993;-66
2023/01/16 05:19:42;;;;;;;;;;;19.10;42.90;;;;;;5057997;28;19933;-67
2023/01/16 05:22:09;;;;;;;;;;;19.10;42.90;;;;;;5080913;28;20320;-65
2023/01/16 05:24:38;;;;;;;;;;;19.10;42.80;;;;;;5080386;28;19920;-63
2023/01/16 05:27:04;;;;;;;;;;;19.10;42.90;;;;;;5079088;28;19920;-65
2023/01/16 05:29:31;;;;;;;;;;;19.10;42.90;;;;;;5058264;28;19978;-66
2023/01/16 05:31:58;;;;;;;;;;;19.10;42.90;;;;;;5061467;28;19927;-65
2023/01/16 05:34:24;;;;;;;;;;;19.10;42.90;;;;;;5060020;28;19973;-64
2023/01/16 05:36:51;;;;;;;;;;;19.10;42.90;;;;;;5062626;28;19954;-65
2023/01/16 05:39:18;;;;;;;;;;;19.10;42.90;;;;;;5058412;28;19923;-64
2023/01/16 05:41:46;;;;;;;;;;;19.10;42.90;;;;;;5062662;28;19921;-64
2023/01/16 05:44:13;;;;;;;;;;;19.10;42.80;;;;;;5062223;28;19978;-64
2023/01/16 05:46:39;;;;;;;;;;;19.10;42.90;;;;;;5061340;28;20247;-64
2023/01/16 05:49:06;;;;;;;;;;;19.10;42.80;;;;;;5082108;28;20056;-64
2023/01/16 05:51:33;;;;;;;;;;;19.10;42.80;;;;;;5059067;28;19970;-64
2023/01/16 05:54:00;;;;;;;;;;;19.10;42.80;;;;;;5059962;28;19946;-64
2023/01/16 05:56:27;;;;;;;;;;;19.10;42.80;;;;;;5061982;28;19928;-64
2023/01/16 05:58:57;;;;;;;;;;;19.10;42.80;;;;;;5055771;28;19950;-65
2023/01/16 06:01:23;;;;;;;;;;;19.20;42.90;;;;;;5059725;28;19971;-64
2023/01/16 06:03:51;;;;;;;;;;;19.10;42.80;;;;;;5062531;28;19920;-64
2023/01/16 06:06:18;;;;;;;;;;;19.10;42.90;;;;;;5078422;28;19924;-65
2023/01/16 06:08:50;;;;;;;;;;;19.10;42.80;;;;;;5077477;28;19962;-64
2023/01/16 06:11:17;;;;;;;;;;;19.10;42.80;;;;;;5057398;28;20273;-64
2023/01/16 06:13:44;;;;;;;;;;;19.10;42.80;;;;;;5061872;28;19932;-65
2023/01/16 06:16:12;;;;;;;;;;;19.10;42.80;;;;;;5061640;28;19920;-65
2023/01/16 06:18:38;;;;;;;;;;;19.10;42.80;;;;;;5058457;28;19921;-66
2023/01/16 06:21:05;;;;;;;;;;;19.10;42.80;;;;;;5063318;28;19920;-64
2023/01/16 06:23:32;;;;;;;;;;;19.10;42.80;;;;;;5079425;28;19925;-64
2023/01/16 06:26:00;;;;;;;;;;;19.10;42.80;;;;;;5064469;28;19920;-64
2023/01/16 06:28:27;;;;;;;;;;;19.10;42.80;;;;;;5063052;28;19967;-66
2023/01/16 06:30:54;;;;;;;;;;;19.10;42.80;;;;;;5064650;28;19924;-64
2023/01/16 06:33:22;;;;;;;;;;;19.10;42.90;;;;;;5064674;28;19928;-66
2023/01/16 06:35:49;;;;;;;;;;;19.10;42.90;;;;;;5064381;28;19925;-64
2023/01/16 06:38:16;;;;;;;;;;;19.10;42.90;;;;;;5083912;28;19920;-67
2023/01/16 06:40:44;;;;;;;;;;;19.10;42.90;;;;;;5059752;28;19920;-64
2023/01/16 06:43:10;;;;;;;;;;;19.10;42.90;;;;;;5080860;28;20381;-65
2023/01/16 06:45:37;;;;;;;;;;;19.10;42.90;;;;;;5063989;28;19931;-64
2023/01/16 06:48:04;;;;;;;;;;;19.10;42.90;;;;;;5063636;28;19925;-65
2023/01/16 06:50:32;;;;;;;;;;;19.10;42.90;;;;;;5061488;28;19928;-64
2023/01/16 06:52:59;;;;;;;;;;;19.10;42.90;;;;;;5063915;28;19932;-63
2023/01/16 06:55:26;;;;;;;;;;;19.10;42.90;;;;;;5066368;28;19965;-64
2023/01/16 06:57:53;;;;;;;;;;;19.10;42.90;;;;;;5065733;28;19924;-64
2023/01/16 07:00:19;;;;;;;;;;;19.10;42.90;;;;;;5065213;28;20341;-64
2023/01/16 07:02:50;;;;;;;;;;;19.10;42.90;;;;;;5054371;28;20408;-64
2023/01/16 07:05:16;;;;;;;;;;;19.10;42.90;;;;;;5055613;28;19966;-63
2023/01/16 07:07:44;;;;;;;;;;;19.10;42.90;;;;;;5055308;28;19924;-64
2023/01/16 07:10:11;;;;;;;;;;;19.10;42.90;;;;;;5036849;28;19948;-64
2023/01/16 07:12:38;;;;;;;;;;;19.10;42.90;;;;;;5054883;28;19924;-63
2023/01/16 07:23:20;;;;;;;;;;;19.10;42.90;;;;;;5073007;28;19943;-63
2023/01/16 07:25:47;;;;;;;;;;;19.10;42.90;;;;;;5072164;28;19920;-64
2023/01/16 07:28:13;;;;;;;;;;;19.10;42.90;;;;;;5070755;28;19920;-64
2023/01/16 07:30:40;;;;;;;;;;;19.10;42.80;;;;;;5069174;28;19920;-64
2023/01/16 07:33:07;;;;;;;;;;;19.10;42.80;;;;;;5054840;28;20001;-65
2023/01/16 07:35:34;;;;;;;;;;;19.10;42.80;;;;;;5058463;28;20259;-64
2023/01/16 07:38:00;;;;;;;;;;;19.10;42.80;;;;;;5053150;28;20373;-65
2023/01/16 07:40:28;;;;;;;;;;;19.10;42.90;;;;;;5073179;28;19927;-64
2023/01/16 07:42:55;;;;;;;;;;;19.10;42.80;;;;;;5055719;28;19924;-63
2023/01/16 07:45:22;;;;;;;;;;;19.10;42.80;;;;;;5070436;28;19985;-64
2023/01/16 07:47:48;;;;;;;;;;;19.10;42.80;;;;;;5054000;28;19924;-63
2023/01/16 07:50:15;;;;;;;;;;;19.10;42.80;;;;;;5055856;28;19921;-64
2023/01/16 07:52:42;;;;;;;;;;;19.10;42.80;;;;;;5053578;28;20328;-63
2023/01/16 07:55:10;;;;;;;;;;;19.10;42.80;;;;;;5054192;28;19993;-64
2023/01/16 07:57:38;;;;;;;;;;;19.10;42.80;;;;;;5053208;28;19921;-65
2023/01/16 08:00:05;;;;;;;;;;;19.10;42.80;;;;;;5071398;28;19955;-64
2023/01/16 08:02:32;;;;;;;;;;;19.10;42.90;;;;;;5071075;28;20265;-65
2023/01/16 08:04:59;;;;;;;;;;;19.10;42.90;;;;;;5071594;28;19920;-63
2023/01/16 08:07:26;;;;;;;;;;;19.10;42.80;;;;;;5070340;28;19925;-65
2023/01/16 08:09:52;;;;;;;;;;;19.10;42.90;;;;;;5047901;28;19970;-64
2023/01/16 08:12:19;;;;;;;;;;;19.10;42.90;;;;;;5051901;28;19924;-65
2023/01/16 08:14:47;;;;;;;;;;;19.10;42.90;;;;;;5071031;28;19929;-65
2023/01/16 08:17:15;;;;;;;;;;;19.10;42.90;;;;;;5053346;28;19939;-64
2023/01/16 08:19:42;;;;;;;;;;;19.10;42.90;;;;;;5053735;28;19928;-64
2023/01/16 08:22:08;;;;;;;;;;;19.10;42.90;;;;;;5053564;28;19962;-63
2023/01/16 08:24:35;;;;;;;;;;;19.10;42.90;;;;;;5061264;28;19921;-65
2023/01/16 08:27:02;;;;;;;;;;;19.10;42.90;;;;;;5063553;28;19921;-65
2023/01/16 08:29:28;;;;;;;;;;;19.10;42.90;;;;;;5062306;28;19940;-61
2023/01/16 08:31:57;;;;;;;;;;;19.10;42.90;;;;;;5064244;28;20322;-65
2023/01/16 08:34:23;;;;;;;;;;;19.10;42.90;;;;;;5079484;28;20366;-64
2023/01/16 08:36:50;;;;;;;;;;;19.10;42.90;;;;;;5065300;28;19943;-63
2023/01/16 08:39:17;;;;;;;;;;;19.10;43.00;;;;;;5060969;28;19927;-62
2023/01/16 08:52:43;;;;;;;;;;;19.20;43.20;;;;;;5078843;28;19920;-65
2023/01/16 08:55:09;;;;;;;;;;;19.20;43.20;;;;;;5064292;28;19942;-65
2023/01/16 08:57:36;;;;;;;;;;;19.20;43.20;;;;;;5052609;28;19966;-65
2023/01/16 09:00:03;;;;;;;;;;;19.20;43.20;;;;;;5061064;28;20386;-65
2023/01/16 09:02:35;;;;;;;;;;;19.20;43.20;;;;;;5077446;28;20414;-66
2023/01/16 09:05:02;;;;;;;;;;;19.20;43.20;;;;;;5054271;28;19924;-66
2023/01/16 09:07:30;;;;;;;;;;;19.20;43.20;;;;;;5075573;28;19925;-63
2023/01/16 09:09:56;;;;;;;;;;;19.30;43.40;;;;;;5063121;28;19931;-64
2023/01/16 09:15:08;;;;;;;;;;;19.30;43.40;;;;;;5070819;28;19973;-63
2023/01/16 09:17:36;;;;;;;;;;;19.30;43.30;;;;;;5076707;28;19924;-63
2023/01/16 09:20:03;;;;;;;;;;;19.30;43.40;;;;;;5094228;28;19928;-64
2023/01/16 09:22:30;;;;;;;;;;;19.30;43.40;;;;;;5083184;28;19920;-63
2023/01/16 09:24:56;;;;;;;;;;;19.30;43.40;;;;;;5060810;28;20255;-63
2023/01/16 09:27:24;;;;;;;;;;;19.30;43.40;;;;;;5064603;28;19920;-62
2023/01/16 09:29:51;;;;;;;;;;;19.30;43.40;;;;;;5055644;28;19998;-62
2023/01/16 09:32:18;;;;;;;;;;;19.30;43.40;;;;;;5058927;28;19966;-62
2023/01/16 09:34:46;;;;;;;;;;;19.30;43.40;;;;;;5055942;28;19983;-62
2023/01/16 09:37:13;;;;;;;;;;;19.40;43.50;;;;;;5073792;28;19920;-62
2023/01/16 09:39:40;;;;;;;;;;;19.40;43.50;;;;;;5056561;28;19920;-62
2023/01/16 09:44:56;;;;;;;;;;;19.40;43.50;;;;;;5072293;28;19920;-62
2023/01/16 09:47:24;;;;;;;;;;;19.40;43.50;;;;;;5065528;28;20251;-62
2023/01/16 09:49:53;;;;;;;;;;;19.40;43.50;;;;;;5055534;28;19924;-63
2023/01/16 10:00:34;;;;;;;;;;;19.40;43.50;;;;;;5057654;28;19924;-63
2023/01/16 10:03:00;;;;;;;;;;;19.40;43.50;;;;;;5060477;28;20007;-62
2023/01/16 10:05:29;;;;;;;;;;;19.40;43.50;;;;;;5077236;28;19920;-62
2023/01/16 10:07:57;;;;;;;;;;;19.40;43.60;;;;;;5065359;28;19937;-62
2023/01/16 10:10:37;;;;;;;;;;;19.40;43.50;;;;;;5063380;28;20087;-63
2023/01/16 10:13:06;;;;;;;;;;;19.40;43.50;;;;;;5082445;28;19925;-63
2023/01/16 10:15:36;;;;;;;;;;;19.50;43.60;;;;;;5057044;28;19921;-63
2023/01/16 10:18:06;;;;;;;;;;;19.50;43.70;;;;;;5059790;28;19921;-62
2023/01/16 10:20:41;;;;;;;;;;;19.50;43.60;;;;;;5056935;28;19966;-61
2023/01/16 10:23:11;;;;;;;;;;;19.50;43.70;;;;;;5076662;28;19927;-61
2023/01/16 10:25:39;;;;;;;;;;;19.50;43.60;;;;;;5055988;28;19959;-61
2023/01/16 10:28:10;;;;;;;;;;;19.50;43.30;;;;;;5059097;28;19924;-61
2023/01/16 10:30:37;;;;;;;;;;;19.50;43.10;;;;;;5080879;28;19920;-65
2023/01/16 10:33:05;;;;;;;;;;;19.40;42.80;;;;;;5063905;28;19974;-62
2023/01/16 10:35:32;;;;;;;;;;;19.40;42.60;;;;;;5063480;28;20255;-61
2023/01/16 10:38:03;;;;;;;;;;;19.40;42.50;;;;;;5076865;28;19924;-62
2023/01/16 10:51:24;;;;;;;;;;;19.30;41.80;;;;;;5061897;28;20365;-62
2023/01/16 10:53:52;;;;;;;;;;;19.30;41.70;;;;;;5058659;28;19974;-62
2023/01/16 10:56:19;;;;;;;;;;;19.30;41.50;;;;;;5066701;28;19920;-61
2023/01/16 10:58:46;;;;;;;;;;;19.30;41.40;;;;;;5076231;28;19924;-61
2023/01/16 11:01:14;;;;;;;;;;;19.30;41.40;;;;;;5059261;28;19921;-62
2023/01/16 11:03:41;;;;;;;;;;;19.30;41.40;;;;;;5056927;28;19987;-62
2023/01/16 11:06:09;;;;;;;;;;;19.20;41.20;;;;;;5078742;28;19920;-63
2023/01/16 11:08:36;;;;;;;;;;;19.20;41.20;;;;;;5078767;28;19928;-63
2023/01/16 11:11:04;;;;;;;;;;;19.20;41.20;;;;;;5078080;28;19951;-61
2023/01/16 11:19:15;;;;;;;;;;;19.20;40.90;;;;;;5062479;28;20015;-61
2023/01/16 11:21:43;;;;;;;;;;;19.20;40.90;;;;;;5056265;28;19927;-61
2023/01/16 11:24:14;;;;;;;;;;;19.20;41.00;;;;;;5076009;28;19924;-60
2023/01/16 11:26:43;;;;;;;;;;;19.20;40.80;;;;;;5057753;28;19920;-60
2023/01/16 11:29:12;;;;;;;;;;;19.10;40.60;;;;;;5058033;28;19920;-60
2023/01/16 11:31:39;;;;;;;;;;;19.10;40.40;;;;;;5072450;28;19927;-61
2023/01/16 11:34:14;;;;;;;;;;;19.10;39.60;;;;;;5073883;28;19924;-60
2023/01/16 11:36:41;;;;;;;;;;;19.10;39.40;;;;;;5063509;28;20374;-61
2023/01/16 11:39:11;;;;;;;;;;;19.10;39.50;;;;;;5080054;28;19974;-61
2023/01/16 11:41:38;;;;;;;;;;;19.00;39.40;;;;;;5068706;28;19963;-60
2023/01/16 11:46:57;;;;;;;;;;;19.00;39.60;;;;;;5075089;28;19925;-60
2023/01/16 11:49:25;;;;;;;;;;;18.90;39.60;;;;;;5075713;28;19927;-60
2023/01/16 11:51:53;;;;;;;;;;;18.90;39.70;;;;;;5095762;28;19977;-60
2023/01/16 11:54:20;;;;;;;;;;;18.90;40.30;;;;;;5086163;28;19920;-60
2023/01/16 11:56:56;;;;;;;;;;;18.90;39.80;;;;;;5060770;28;20019;-61
2023/01/16 11:59:31;;;;;;;;;;;18.90;39.80;;;;;;5055274;28;19920;-61
2023/01/16 12:02:19;;;;;;;;;;;18.90;39.70;;;;;;5054039;28;19931;-61
2023/01/16 12:05:53;;;;;;;;;;;18.90;39.80;;;;;;5073793;28;19921;-61
2023/01/16 12:07:37;;;;;;;;;;;18.90;39.70;;;;;;5072119;28;19972;-61
2023/01/16 12:10:04;;;;;;;;;;;18.90;39.70;;;;;;5057327;28;20262;-60
2023/01/16 12:15:22;;;;;;;;;;;18.90;39.70;;;;;;5037444;28;20283;-61
2023/01/16 12:17:55;;;;;;;;;;;18.90;39.70;;;;;;5050696;28;19924;-61
2023/01/16 12:20:27;;;;;;;;;;;18.90;39.70;;;;;;5071345;28;19920;-61
2023/01/16 12:22:58;;;;;;;;;;;18.90;39.60;;;;;;5055191;28;19955;-61
2023/01/16 12:25:26;;;;;;;;;;;18.90;39.60;;;;;;5072955;28;19920;-60
2023/01/16 12:27:56;;;;;;;;;;;18.90;39.60;;;;;;5074773;28;19974;-61
2023/01/16 12:30:26;;;;;;;;;;;18.90;39.60;;;;;;5074714;28;19960;-63
2023/01/16 12:32:55;;;;;;;;;;;18.90;39.60;;;;;;5072446;28;19921;-63
2023/01/16 12:35:29;;;;;;;;;;;18.90;40.10;;;;;;5073163;28;19928;-63
2023/01/16 12:37:58;;;;;;;;;;;18.90;40.30;;;;;;5071986;28;19933;-62
2023/01/16 12:40:30;;;;;;;;;;;18.90;40.50;;;;;;5061210;28;19956;-63
2023/01/16 12:45:45;;;;;;;;;;;18.90;40.80;;;;;;5064130;28;19920;-62
2023/01/16 12:48:17;;;;;;;;;;;18.90;40.90;;;;;;5077090;28;19943;-63
2023/01/16 12:50:50;;;;;;;;;;;19.00;41.00;;;;;;5074980;28;19924;-62
2023/01/16 12:53:26;;;;;;;;;;;19.00;41.10;;;;;;5094537;28;20327;-62
2023/01/16 12:55:54;;;;;;;;;;;19.00;41.20;;;;;;5064474;28;19928;-62
2023/01/16 12:58:22;;;;;;;;;;;19.00;41.20;;;;;;5054231;28;19924;-62
2023/01/16 13:00:51;;;;;;;;;;;19.00;41.30;;;;;;5078182;28;19927;-63
2023/01/16 13:03:20;;;;;;;;;;;19.10;41.40;;;;;;5085442;28;19920;-63
2023/01/16 13:05:47;;;;;;;;;;;19.10;41.50;;;;;;5056753;28;19920;-64
2023/01/16 13:08:15;;;;;;;;;;;19.10;41.60;;;;;;5092347;28;19924;-62
2023/01/16 13:13:27;;;;;;;;;;;19.10;41.70;;;;;;5075903;28;20305;-62
2023/01/16 13:15:57;;;;;;;;;;;19.10;41.80;;;;;;5075891;28;19920;-63
2023/01/16 13:18:24;;;;;;;;;;;19.10;41.80;;;;;;5076001;28;19942;-63
2023/01/16 13:20:52;;;;;;;;;;;19.10;41.80;;;;;;5054550;28;19924;-63
2023/01/16 13:23:20;;;;;;;;;;;19.20;41.90;;;;;;5054202;28;19966;-62
2023/01/16 13:25:47;;;;;;;;;;;19.20;41.90;;;;;;5051907;28;19928;-64
2023/01/16 13:28:16;;;;;;;;;;;19.20;41.90;;;;;;5053376;28;19920;-62
2023/01/16 13:30:43;;;;;;;;;;;19.20;42.00;;;;;;5055982;28;19921;-62
2023/01/16 13:33:11;;;;;;;;;;;19.20;42.00;;;;;;5056294;28;19973;-63
2023/01/16 13:35:39;;;;;;;;;;;19.20;42.00;;;;;;5055949;28;19920;-63
2023/01/16 13:38:20;;;;;;;;;;;19.20;42.10;;;;;;5056157;28;19928;-63
2023/01/16 13:40:50;;;;;;;;;;;19.20;42.10;;;;;;5042654;28;19921;-63
2023/01/16 13:46:01;;;;;;;;;;;19.30;42.20;;;;;;5054332;28;20074;-61
2023/01/16 13:48:30;;;;;;;;;;;19.30;42.20;;;;;;5071507;28;19920;-62
2023/01/16 13:50:59;;;;;;;;;;;19.30;42.20;;;;;;5073118;28;19964;-63
2023/01/16 13:53:26;;;;;;;;;;;19.30;42.30;;;;;;5055855;28;20006;-63
2023/01/16 13:56:00;;;;;;;;;;;19.30;42.30;;;;;;5055414;28;19963;-63
2023/01/16 13:58:27;;;;;;;;;;;19.30;42.30;;;;;;5055647;28;19984;-65
2023/01/16 14:00:57;;;;;;;;;;;19.30;42.30;;;;;;5035119;28;19978;-63
2023/01/16 14:03:24;;;;;;;;;;;19.30;42.30;;;;;;5077312;28;19920;-63
2023/01/16 14:05:53;;;;;;;;;;;19.30;42.40;;;;;;5055223;28;19920;-63
2023/01/16 14:11:39;;;;;;;;;;;19.30;42.40;;;;;;5054292;28;19944;-63
2023/01/16 14:16:30;;;;;;;;;;;19.30;42.40;;;;;;5020548;28;19999;-63
2023/01/16 14:17:09;;;;;;;;;;;19.40;42.50;;;;;;5071896;28;19927;-63
2023/01/16 14:19:37;;;;;;;;;;;19.40;42.50;;;;;;5061541;28;19921;-63
2023/01/16 14:24:47;;;;;;;;;;;19.40;42.60;;;;;;5062090;28;19928;-63
2023/01/16 14:27:14;;;;;;;;;;;19.40;42.60;;;;;;5049654;28;19942;-62
2023/01/16 14:29:45;;;;;;;;;;;19.40;42.60;;;;;;5080120;28;19944;-67
2023/01/16 14:32:16;;;;;;;;;;;19.40;42.60;;;;;;5080032;28;19920;-64
2023/01/16 14:34:50;;;;;;;;;;;19.40;42.60;;;;;;5072220;28;19982;-62
2023/01/16 14:37:20;;;;;;;;;;;19.40;42.70;;;;;;5061807;28;20030;-63
2023/01/16 14:39:48;;;;;;;;;;;19.40;42.70;;;;;;5059145;28;19977;-62
2023/01/16 14:56:11;;;;;;;;;;;19.50;42.90;;;;;;5097100;28;19921;-62
2023/01/16 14:58:40;;;;;;;;;;;19.40;42.80;;;;;;5078301;28;19924;-62
2023/01/16 15:03:52;;;;;;;;;;;19.50;42.90;;;;;;5094906;28;19962;-62
2023/01/16 15:06:19;;;;;;;;;;;19.50;42.90;;;;;;5076408;28;19921;-62
2023/01/16 15:08:47;;;;;;;;;;;19.50;42.90;;;;;;5066543;28;19985;-63
2023/01/16 15:11:34;;;;;;;;;;;19.50;42.90;;;;;;5056848;28;19920;-63
2023/01/16 15:22:18;;;;;;;;;;;19.50;43.00;;;;;;5076254;28;19920;-65
2023/01/16 15:24:47;;;;;;;;;;;19.50;43.00;;;;;;5056301;28;19967;-62
2023/01/16 15:27:15;;;;;;;;;;;19.50;43.00;;;;;;5056648;28;19920;-63
2023/01/16 15:29:47;;;;;;;;;;;19.50;43.00;;;;;;5063811;28;19920;-63
2023/01/16 15:32:17;;;;;;;;;;;19.50;43.00;;;;;;5065253;28;19924;-63
2023/01/16 15:34:44;;;;;;;;;;;19.50;43.00;;;;;;5054794;28;20011;-64
2023/01/16 15:37:18;;;;;;;;;;;19.50;43.00;;;;;;5056205;28;19920;-64
2023/01/16 15:39:48;;;;;;;;;;;19.50;43.00;;;;;;5058233;28;19920;-64
2023/01/16 15:47:54;;;;;;;;;;;19.50;43.10;;;;;;5058461;28;19958;-63
2023/01/16 15:50:27;;;;;;;;;;;19.50;43.10;;;;;;5058855;28;19921;-64
2023/01/16 15:52:53;;;;;;;;;;;19.60;43.20;;;;;;5063629;28;19924;-62
2023/01/16 15:55:22;;;;;;;;;;;19.50;43.10;;;;;;5066868;28;19955;-63
2023/01/16 15:57:50;;;;;;;;;;;19.50;43.10;;;;;;5058839;28;19974;-63
2023/01/16 16:00:24;;;;;;;;;;;19.50;43.10;;;;;;5058066;28;19973;-63
2023/01/16 16:02:51;;;;;;;;;;;19.50;43.10;;;;;;5057030;28;19927;-64
2023/01/16 16:05:45;;;;;;;;;;;19.50;43.20;;;;;;5154163;27;19908;-64
2023/01/16 16:08:12;;;;;;;;;;;19.50;43.10;;;;;;5150691;27;19919;-64